createdAt,value
2019-01-14T10:48:42.621Z,77.5
2019-01-14T10:49:54.860Z,76.6
2019-01-14T10:51:06.938Z,76.2
2019-01-14T10:52:19.124Z,75.1
2019-01-14T10:53:31.496Z,73.3
2019-01-14T10:54:43.501Z,74.5
2019-01-14T10:57:07.916Z,74.9
2019-01-14T10:58:20.110Z,74.4
2019-01-14T11:00:44.494Z,75.5
2019-01-14T11:01:56.689Z,76.9
2019-01-14T11:03:08.893Z,78.2
2019-01-14T11:04:21.107Z,78.3
2019-01-14T11:05:33.276Z,79.1
2019-01-14T11:06:45.529Z,79.3
2019-01-14T11:09:09.857Z,79.4
2019-01-14T11:10:22.062Z,79.4
2019-01-14T11:11:34.254Z,79.8
2019-01-14T11:12:46.540Z,80
2019-01-14T11:13:58.688Z,79.8
2019-01-14T11:16:23.105Z,80.2
2019-01-14T11:17:35.288Z,80.5
2019-01-14T11:18:51.399Z,80.6
2019-01-14T11:19:59.612Z,80
2019-01-14T11:21:11.823Z,80.1
2019-01-14T11:22:23.998Z,79.9
2019-01-14T11:23:36.600Z,79.5
2019-01-14T11:24:48.793Z,79.9
2019-01-14T11:26:00.678Z,79.5
2019-01-14T11:29:37.236Z,79.6
2019-01-14T11:30:49.828Z,80.3
2019-01-14T11:33:13.851Z,79.9
2019-01-14T11:34:26.125Z,80.9
2019-01-14T11:35:41.387Z,81.4
2019-01-14T11:36:50.408Z,80.6
2019-01-14T11:38:02.702Z,80.2
2019-01-14T11:39:14.741Z,80.5
2019-01-14T11:40:26.923Z,80.8
2019-01-14T11:41:39.124Z,81
2019-01-14T11:46:27.892Z,83.6
2019-01-14T11:47:40.239Z,84
2019-01-14T11:51:16.693Z,84.8
2019-01-14T11:52:28.893Z,84
2019-01-14T11:53:41.096Z,83.7
2019-01-14T11:54:53.266Z,83.5
2019-01-14T11:57:17.737Z,84.4
2019-01-14T11:58:29.867Z,84.4
2019-01-14T11:59:42.172Z,84.2
2019-01-14T12:00:54.419Z,84.3
2019-01-14T12:03:18.713Z,83.2
2019-01-14T12:04:30.846Z,83
2019-01-14T12:05:43.106Z,82.9
2019-01-14T12:06:55.275Z,82.8
2019-01-14T12:09:19.633Z,82.6
2019-01-14T12:11:44.622Z,82.5
2019-01-14T12:12:56.206Z,82.4
2019-01-14T12:14:08.532Z,82.1
2019-01-14T12:15:20.594Z,80.5
2019-01-14T12:16:32.801Z,80.8
2019-01-14T12:17:45.061Z,79.2
2019-01-14T12:18:57.260Z,76.4
2019-01-14T12:21:21.647Z,74.2
2019-01-14T12:22:33.836Z,73.1
2019-01-14T12:23:45.968Z,71.8
2019-01-14T12:24:58.148Z,72.4
2019-01-14T12:26:10.343Z,75
2019-01-14T12:27:22.559Z,75.9
2019-01-14T12:29:46.928Z,74.3
2019-01-14T12:30:59.130Z,74.3
2019-01-14T12:34:35.764Z,74
2019-01-14T12:35:47.947Z,72.4
2019-01-14T12:37:00.113Z,72.7
2019-01-14T12:38:12.403Z,72.1
2019-01-14T12:39:24.618Z,72
2019-01-14T12:40:36.797Z,72
2019-01-14T12:41:49.025Z,72.2
2019-01-14T12:43:01.091Z,71.1
2019-01-14T12:45:25.572Z,68.7
2019-01-14T12:46:37.680Z,68.8
2019-01-14T12:49:02.157Z,69.2
2019-01-14T12:50:14.258Z,69
2019-01-14T12:51:26.515Z,72
2019-01-14T12:52:38.735Z,74.1
2019-01-14T12:53:50.833Z,75.6
2019-01-14T12:55:03.307Z,76.5
2019-01-14T12:57:27.425Z,77.3
2019-01-14T12:58:41.817Z,77.3
2019-01-14T12:59:51.804Z,77.5
2019-01-14T13:01:04.010Z,77.4
2019-01-14T13:03:28.412Z,79.1
2019-01-14T13:04:40.669Z,80.2
2019-01-14T13:05:52.840Z,81.7
2019-01-14T13:07:04.997Z,82.8
2019-01-14T13:09:29.442Z,78.1
2019-01-14T13:10:41.577Z,78.5
2019-01-14T13:11:53.771Z,80.6
2019-01-14T13:13:06.047Z,79.7
2019-01-14T13:14:18.252Z,78.9
2019-01-14T13:15:30.439Z,76.3
2019-01-14T13:16:42.609Z,71.4
2019-01-14T13:17:54.759Z,72.1
